Terminal Aerodrome Forecast
Issued by NWS

Home | Current Version | Previous Version | Text Only | Print | Product List | Glossary On
Versions: 1 2 3 4 5 6 7 8 9 10 11 12 13 14
837
FTAK31 PAJN 200523
TAFAWG
TAF
PAWG 200523Z 2006/2106 VRB05KT P6SM FEW120
      AMD LTD TO CLD VIS AND WIND 2006/2015=

USA.gov is the U.S. government's official web portal to all federal, state and local government web resources and services.